Terminal Aerodrome Forecast
Issued by NWS Springfield, MO

Home | Current Version | Previous Version | Text Only | Print | Product List | Glossary On
Versions: 1 2 3 4 5 6 7 8 9 10 11 12 13 14
479
FTUS43 KSGF 211720
TAFSGF
TAF
KSGF 211720Z 2118/2218 18019G27KT P6SM BKN045
     FM220000 16018G26KT P6SM SCT035 BKN070 WS020/17035KT
     FM220600 21017G25KT 6SM -SHRA BR VCTS OVC020CB WS020/18045KT
      TEMPO 2206/2209 30025G35KT 2SM +TSRA BR OVC020CB
     FM220900 32013KT 5SM SHRA BR VCTS OVC010CB
     FM221100 32009KT P6SM OVC008
     FM221500 33013G21KT P6SM BKN015=

USA.gov is the U.S. government's official web portal to all federal, state and local government web resources and services.